sensor_id;sensor_type;location;lat;lon;timestamp;P1;durP1;ratioP1;P2;durP2;ratioP2
16137;SDS011;8174;43.550;5.206;2022-10-12T00:00:52;24.53;;;12.23;;
16137;SDS011;8174;43.550;5.206;2022-10-12T00:03:20;17.07;;;12.03;;
16137;SDS011;8174;43.550;5.206;2022-10-12T00:05:58;17.08;;;11.50;;
16137;SDS011;8174;43.550;5.206;2022-10-12T00:08:26;18.63;;;12.00;;
16137;SDS011;8174;43.550;5.206;2022-10-12T00:10:54;18.83;;;12.55;;
16137;SDS011;8174;43.550;5.206;2022-10-12T00:13:24;17.60;;;11.90;;
16137;SDS011;8174;43.550;5.206;2022-10-12T00:15:52;24.33;;;12.48;;
16137;SDS011;8174;43.550;5.206;2022-10-12T00:18:19;16.35;;;12.25;;
16137;SDS011;8174;43.550;5.206;2022-10-12T00:20:47;16.77;;;11.83;;
16137;SDS011;8174;43.550;5.206;2022-10-12T00:23:14;18.60;;;12.90;;
16137;SDS011;8174;43.550;5.206;2022-10-12T00:25:42;24.50;;;13.10;;
16137;SDS011;8174;43.550;5.206;2022-10-12T00:28:10;18.87;;;12.50;;
16137;SDS011;8174;43.550;5.206;2022-10-12T00:30:40;17.50;;;12.43;;
16137;SDS011;8174;43.550;5.206;2022-10-12T00:33:08;20.93;;;12.00;;
16137;SDS011;8174;43.550;5.206;2022-10-12T00:35:36;18.43;;;12.67;;
16137;SDS011;8174;43.550;5.206;2022-10-12T00:38:04;19.63;;;12.70;;
16137;SDS011;8174;43.550;5.206;2022-10-12T00:40:31;21.73;;;12.63;;
16137;SDS011;8174;43.550;5.206;2022-10-12T00:42:59;15.00;;;12.17;;
16137;SDS011;8174;43.550;5.206;2022-10-12T00:45:31;21.60;;;12.60;;
16137;SDS011;8174;43.550;5.206;2022-10-12T00:48:03;18.13;;;12.77;;
16137;SDS011;8174;43.550;5.206;2022-10-12T00:50:31;21.80;;;12.70;;
16137;SDS011;8174;43.550;5.206;2022-10-12T00:53:00;18.93;;;11.97;;
16137;SDS011;8174;43.550;5.206;2022-10-12T00:55:30;18.20;;;11.93;;
16137;SDS011;8174;43.550;5.206;2022-10-12T00:58:01;18.02;;;12.10;;
16137;SDS011;8174;43.550;5.206;2022-10-12T01:00:29;18.33;;;11.90;;
16137;SDS011;8174;43.550;5.206;2022-10-12T01:02:57;17.37;;;12.37;;
16137;SDS011;8174;43.550;5.206;2022-10-12T01:05:26;17.03;;;12.40;;
16137;SDS011;8174;43.550;5.206;2022-10-12T01:07:54;16.90;;;12.30;;
16137;SDS011;8174;43.550;5.206;2022-10-12T01:10:23;16.67;;;12.47;;
16137;SDS011;8174;43.550;5.206;2022-10-12T01:12:51;17.47;;;12.07;;
16137;SDS011;8174;43.550;5.206;2022-10-12T01:15:19;19.97;;;12.23;;
16137;SDS011;8174;43.550;5.206;2022-10-12T01:17:49;19.20;;;12.67;;
16137;SDS011;8174;43.550;5.206;2022-10-12T01:20:35;26.30;;;12.57;;
16137;SDS011;8174;43.550;5.206;2022-10-12T01:23:18;19.27;;;12.17;;
16137;SDS011;8174;43.550;5.206;2022-10-12T01:25:55;19.37;;;11.87;;
16137;SDS011;8174;43.550;5.206;2022-10-12T01:28:27;22.33;;;12.30;;
16137;SDS011;8174;43.550;5.206;2022-10-12T01:31:01;18.33;;;12.20;;
16137;SDS011;8174;43.550;5.206;2022-10-12T01:33:31;15.10;;;12.43;;
16137;SDS011;8174;43.550;5.206;2022-10-12T01:36:03;16.73;;;12.00;;
16137;SDS011;8174;43.550;5.206;2022-10-12T01:38:35;21.47;;;13.30;;
16137;SDS011;8174;43.550;5.206;2022-10-12T01:41:08;19.80;;;13.03;;
16137;SDS011;8174;43.550;5.206;2022-10-12T01:43:39;16.95;;;12.57;;
16137;SDS011;8174;43.550;5.206;2022-10-12T01:48:52;17.53;;;12.40;;
16137;SDS011;8174;43.550;5.206;2022-10-12T01:51:22;18.67;;;12.40;;
16137;SDS011;8174;43.550;5.206;2022-10-12T01:53:53;20.27;;;12.93;;
16137;SDS011;8174;43.550;5.206;2022-10-12T01:56:25;18.57;;;13.50;;
16137;SDS011;8174;43.550;5.206;2022-10-12T01:58:55;19.47;;;12.70;;
16137;SDS011;8174;43.550;5.206;2022-10-12T02:01:26;21.10;;;13.50;;
16137;SDS011;8174;43.550;5.206;2022-10-12T02:03:59;19.67;;;13.20;;
16137;SDS011;8174;43.550;5.206;2022-10-12T02:06:27;18.43;;;13.50;;
16137;SDS011;8174;43.550;5.206;2022-10-12T02:08:57;17.93;;;12.97;;
16137;SDS011;8174;43.550;5.206;2022-10-12T02:11:26;21.60;;;14.20;;
16137;SDS011;8174;43.550;5.206;2022-10-12T02:13:55;19.80;;;13.60;;
16137;SDS011;8174;43.550;5.206;2022-10-12T02:16:24;22.17;;;14.20;;
16137;SDS011;8174;43.550;5.206;2022-10-12T02:18:54;22.17;;;14.43;;
16137;SDS011;8174;43.550;5.206;2022-10-12T02:21:26;18.70;;;13.83;;
16137;SDS011;8174;43.550;5.206;2022-10-12T02:23:56;20.57;;;14.13;;
16137;SDS011;8174;43.550;5.206;2022-10-12T02:26:25;21.77;;;13.70;;
16137;SDS011;8174;43.550;5.206;2022-10-12T02:28:53;18.07;;;14.07;;
16137;SDS011;8174;43.550;5.206;2022-10-12T02:31:23;24.73;;;14.67;;
16137;SDS011;8174;43.550;5.206;2022-10-12T02:33:56;19.23;;;14.00;;
16137;SDS011;8174;43.550;5.206;2022-10-12T02:36:27;19.53;;;14.17;;
16137;SDS011;8174;43.550;5.206;2022-10-12T02:38:57;22.37;;;14.43;;
16137;SDS011;8174;43.550;5.206;2022-10-12T02:41:28;20.23;;;13.80;;
16137;SDS011;8174;43.550;5.206;2022-10-12T02:43:57;15.73;;;13.13;;
16137;SDS011;8174;43.550;5.206;2022-10-12T02:46:26;20.73;;;14.47;;
16137;SDS011;8174;43.550;5.206;2022-10-12T02:48:54;23.73;;;14.83;;
16137;SDS011;8174;43.550;5.206;2022-10-12T02:51:23;21.10;;;14.03;;
16137;SDS011;8174;43.550;5.206;2022-10-12T02:53:54;19.73;;;13.93;;
16137;SDS011;8174;43.550;5.206;2022-10-12T02:56:21;16.93;;;13.33;;
16137;SDS011;8174;43.550;5.206;2022-10-12T02:58:49;16.27;;;12.80;;
16137;SDS011;8174;43.550;5.206;2022-10-12T03:01:16;23.27;;;13.57;;
16137;SDS011;8174;43.550;5.206;2022-10-12T03:03:44;21.63;;;12.93;;
16137;SDS011;8174;43.550;5.206;2022-10-12T03:06:12;23.47;;;13.17;;
16137;SDS011;8174;43.550;5.206;2022-10-12T03:08:39;16.03;;;13.13;;
16137;SDS011;8174;43.550;5.206;2022-10-12T03:11:11;20.97;;;13.50;;
16137;SDS011;8174;43.550;5.206;2022-10-12T03:13:38;19.57;;;12.70;;
16137;SDS011;8174;43.550;5.206;2022-10-12T03:16:07;18.57;;;12.87;;
16137;SDS011;8174;43.550;5.206;2022-10-12T03:18:35;16.83;;;12.67;;
16137;SDS011;8174;43.550;5.206;2022-10-12T03:21:02;19.83;;;13.07;;
16137;SDS011;8174;43.550;5.206;2022-10-12T03:23:30;15.77;;;12.33;;
16137;SDS011;8174;43.550;5.206;2022-10-12T03:25:57;18.43;;;12.77;;
16137;SDS011;8174;43.550;5.206;2022-10-12T03:28:26;21.13;;;13.17;;
16137;SDS011;8174;43.550;5.206;2022-10-12T03:30:54;24.90;;;12.73;;
16137;SDS011;8174;43.550;5.206;2022-10-12T03:33:21;22.87;;;12.57;;
16137;SDS011;8174;43.550;5.206;2022-10-12T03:35:49;19.17;;;12.10;;
16137;SDS011;8174;43.550;5.206;2022-10-12T03:38:17;19.87;;;12.00;;
16137;SDS011;8174;43.550;5.206;2022-10-12T03:40:45;16.77;;;11.97;;
16137;SDS011;8174;43.550;5.206;2022-10-12T03:43:13;18.87;;;12.43;;
16137;SDS011;8174;43.550;5.206;2022-10-12T03:45:42;19.07;;;11.80;;
16137;SDS011;8174;43.550;5.206;2022-10-12T03:48:10;19.80;;;13.10;;
16137;SDS011;8174;43.550;5.206;2022-10-12T03:50:37;16.90;;;11.93;;
16137;SDS011;8174;43.550;5.206;2022-10-12T03:53:05;21.07;;;12.90;;
16137;SDS011;8174;43.550;5.206;2022-10-12T03:55:33;17.23;;;12.30;;
16137;SDS011;8174;43.550;5.206;2022-10-12T03:58:00;17.40;;;11.80;;
16137;SDS011;8174;43.550;5.206;2022-10-12T04:00:28;16.03;;;12.07;;
16137;SDS011;8174;43.550;5.206;2022-10-12T04:02:57;15.00;;;11.33;;
16137;SDS011;8174;43.550;5.206;2022-10-12T04:05:26;21.87;;;11.87;;
16137;SDS011;8174;43.550;5.206;2022-10-12T04:07:53;16.57;;;11.67;;
16137;SDS011;8174;43.550;5.206;2022-10-12T04:10:21;16.73;;;11.50;;
16137;SDS011;8174;43.550;5.206;2022-10-12T04:12:48;16.77;;;11.53;;
16137;SDS011;8174;43.550;5.206;2022-10-12T04:15:16;14.80;;;11.60;;
16137;SDS011;8174;43.550;5.206;2022-10-12T04:17:44;17.93;;;12.03;;
16137;SDS011;8174;43.550;5.206;2022-10-12T04:20:13;17.77;;;11.70;;
16137;SDS011;8174;43.550;5.206;2022-10-12T04:22:40;16.00;;;12.07;;
16137;SDS011;8174;43.550;5.206;2022-10-12T04:25:09;17.00;;;12.67;;
16137;SDS011;8174;43.550;5.206;2022-10-12T04:27:37;19.53;;;12.30;;
16137;SDS011;8174;43.550;5.206;2022-10-12T04:30:05;17.90;;;12.70;;
16137;SDS011;8174;43.550;5.206;2022-10-12T04:32:33;15.53;;;11.70;;
16137;SDS011;8174;43.550;5.206;2022-10-12T04:35:00;19.13;;;12.50;;
16137;SDS011;8174;43.550;5.206;2022-10-12T04:37:29;19.23;;;12.17;;
16137;SDS011;8174;43.550;5.206;2022-10-12T04:39:57;16.50;;;12.07;;
16137;SDS011;8174;43.550;5.206;2022-10-12T04:42:24;23.97;;;13.13;;
16137;SDS011;8174;43.550;5.206;2022-10-12T04:44:52;22.83;;;13.63;;
16137;SDS011;8174;43.550;5.206;2022-10-12T04:47:19;20.60;;;13.63;;
16137;SDS011;8174;43.550;5.206;2022-10-12T04:49:47;20.63;;;13.20;;
16137;SDS011;8174;43.550;5.206;2022-10-12T04:52:14;16.07;;;12.47;;
16137;SDS011;8174;43.550;5.206;2022-10-12T04:54:43;18.17;;;11.90;;
16137;SDS011;8174;43.550;5.206;2022-10-12T04:57:11;21.67;;;12.43;;
16137;SDS011;8174;43.550;5.206;2022-10-12T04:59:38;14.93;;;11.30;;
16137;SDS011;8174;43.550;5.206;2022-10-12T05:02:06;14.57;;;11.70;;
16137;SDS011;8174;43.550;5.206;2022-10-12T05:04:34;24.43;;;12.50;;
16137;SDS011;8174;43.550;5.206;2022-10-12T05:07:02;20.83;;;12.90;;
16137;SDS011;8174;43.550;5.206;2022-10-12T05:09:30;19.53;;;12.50;;
16137;SDS011;8174;43.550;5.206;2022-10-12T05:11:59;19.83;;;12.10;;
16137;SDS011;8174;43.550;5.206;2022-10-12T05:14:26;18.03;;;11.53;;
16137;SDS011;8174;43.550;5.206;2022-10-12T05:16:54;18.87;;;11.80;;
16137;SDS011;8174;43.550;5.206;2022-10-12T05:19:21;16.80;;;11.63;;
16137;SDS011;8174;43.550;5.206;2022-10-12T05:21:49;17.00;;;11.40;;
16137;SDS011;8174;43.550;5.206;2022-10-12T05:24:17;19.13;;;11.03;;
16137;SDS011;8174;43.550;5.206;2022-10-12T05:26:45;20.07;;;11.03;;
16137;SDS011;8174;43.550;5.206;2022-10-12T05:29:14;19.17;;;11.13;;
16137;SDS011;8174;43.550;5.206;2022-10-12T05:31:41;23.40;;;15.53;;
16137;SDS011;8174;43.550;5.206;2022-10-12T05:34:09;19.63;;;11.13;;
16137;SDS011;8174;43.550;5.206;2022-10-12T05:36:36;19.53;;;10.97;;
16137;SDS011;8174;43.550;5.206;2022-10-12T05:39:04;19.17;;;11.40;;
16137;SDS011;8174;43.550;5.206;2022-10-12T05:41:31;19.70;;;10.83;;
16137;SDS011;8174;43.550;5.206;2022-10-12T05:43:59;14.97;;;10.53;;
16137;SDS011;8174;43.550;5.206;2022-10-12T05:46:27;20.87;;;11.00;;
16137;SDS011;8174;43.550;5.206;2022-10-12T05:48:55;15.33;;;11.07;;
16137;SDS011;8174;43.550;5.206;2022-10-12T05:51:22;18.40;;;10.47;;
16137;SDS011;8174;43.550;5.206;2022-10-12T05:53:50;17.27;;;10.83;;
16137;SDS011;8174;43.550;5.206;2022-10-12T05:56:17;19.10;;;10.70;;
16137;SDS011;8174;43.550;5.206;2022-10-12T05:58:45;22.47;;;11.83;;
16137;SDS011;8174;43.550;5.206;2022-10-12T06:01:12;20.23;;;11.40;;
16137;SDS011;8174;43.550;5.206;2022-10-12T06:03:42;19.33;;;11.60;;
16137;SDS011;8174;43.550;5.206;2022-10-12T06:06:09;18.73;;;11.43;;
16137;SDS011;8174;43.550;5.206;2022-10-12T06:08:37;17.47;;;11.13;;
16137;SDS011;8174;43.550;5.206;2022-10-12T06:11:04;21.13;;;11.43;;
16137;SDS011;8174;43.550;5.206;2022-10-12T06:13:32;22.87;;;11.23;;
16137;SDS011;8174;43.550;5.206;2022-10-12T06:16:00;19.20;;;10.53;;
16137;SDS011;8174;43.550;5.206;2022-10-12T06:18:27;17.77;;;11.37;;
16137;SDS011;8174;43.550;5.206;2022-10-12T06:20:56;21.90;;;10.50;;
16137;SDS011;8174;43.550;5.206;2022-10-12T06:23:24;14.80;;;11.00;;
16137;SDS011;8174;43.550;5.206;2022-10-12T06:25:51;16.07;;;10.27;;
16137;SDS011;8174;43.550;5.206;2022-10-12T06:28:19;18.27;;;10.43;;
16137;SDS011;8174;43.550;5.206;2022-10-12T06:30:51;21.57;;;10.37;;
16137;SDS011;8174;43.550;5.206;2022-10-12T06:33:19;14.80;;;10.07;;
16137;SDS011;8174;43.550;5.206;2022-10-12T06:35:46;17.60;;;10.20;;
16137;SDS011;8174;43.550;5.206;2022-10-12T06:38:15;16.60;;;9.60;;
16137;SDS011;8174;43.550;5.206;2022-10-12T06:40:43;16.70;;;10.23;;
16137;SDS011;8174;43.550;5.206;2022-10-12T06:43:10;14.60;;;10.07;;
16137;SDS011;8174;43.550;5.206;2022-10-12T06:45:38;16.20;;;9.90;;
16137;SDS011;8174;43.550;5.206;2022-10-12T06:48:05;13.37;;;8.80;;
16137;SDS011;8174;43.550;5.206;2022-10-12T06:50:33;18.30;;;9.97;;
16137;SDS011;8174;43.550;5.206;2022-10-12T06:53:01;15.47;;;9.43;;
16137;SDS011;8174;43.550;5.206;2022-10-12T06:55:30;14.68;;;8.90;;
16137;SDS011;8174;43.550;5.206;2022-10-12T06:57:57;14.87;;;9.17;;
16137;SDS011;8174;43.550;5.206;2022-10-12T07:00:25;17.73;;;9.00;;
16137;SDS011;8174;43.550;5.206;2022-10-12T07:02:52;12.83;;;9.07;;
16137;SDS011;8174;43.550;5.206;2022-10-12T07:05:21;18.23;;;8.80;;
16137;SDS011;8174;43.550;5.206;2022-10-12T07:07:49;15.13;;;8.60;;
16137;SDS011;8174;43.550;5.206;2022-10-12T07:10:17;13.82;;;8.18;;
16137;SDS011;8174;43.550;5.206;2022-10-12T07:12:45;17.65;;;8.57;;
16137;SDS011;8174;43.550;5.206;2022-10-12T07:15:13;12.63;;;8.32;;
16137;SDS011;8174;43.550;5.206;2022-10-12T07:17:40;17.65;;;8.60;;
16137;SDS011;8174;43.550;5.206;2022-10-12T07:20:08;17.90;;;8.75;;
16137;SDS011;8174;43.550;5.206;2022-10-12T07:22:36;16.02;;;8.30;;
16137;SDS011;8174;43.550;5.206;2022-10-12T07:25:03;18.95;;;8.55;;
16137;SDS011;8174;43.550;5.206;2022-10-12T07:27:31;20.98;;;9.10;;
16137;SDS011;8174;43.550;5.206;2022-10-12T07:30:00;17.08;;;8.52;;
16137;SDS011;8174;43.550;5.206;2022-10-12T07:32:28;16.50;;;8.60;;
16137;SDS011;8174;43.550;5.206;2022-10-12T07:34:55;18.80;;;8.23;;
16137;SDS011;8174;43.550;5.206;2022-10-12T07:37:23;20.08;;;8.75;;
16137;SDS011;8174;43.550;5.206;2022-10-12T07:39:50;27.60;;;8.63;;
16137;SDS011;8174;43.550;5.206;2022-10-12T07:42:21;14.20;;;8.32;;
16137;SDS011;8174;43.550;5.206;2022-10-12T07:44:49;14.60;;;8.02;;
16137;SDS011;8174;43.550;5.206;2022-10-12T07:47:18;14.30;;;7.95;;
16137;SDS011;8174;43.550;5.206;2022-10-12T07:49:45;17.95;;;8.70;;
16137;SDS011;8174;43.550;5.206;2022-10-12T07:52:13;20.30;;;7.90;;
16137;SDS011;8174;43.550;5.206;2022-10-12T07:54:40;20.17;;;8.70;;
16137;SDS011;8174;43.550;5.206;2022-10-12T07:57:08;17.90;;;8.88;;
16137;SDS011;8174;43.550;5.206;2022-10-12T07:59:35;14.75;;;8.18;;
16137;SDS011;8174;43.550;5.206;2022-10-12T08:02:03;15.40;;;8.65;;
16137;SDS011;8174;43.550;5.206;2022-10-12T08:04:32;16.73;;;8.85;;
16137;SDS011;8174;43.550;5.206;2022-10-12T08:07:00;12.38;;;8.18;;
16137;SDS011;8174;43.550;5.206;2022-10-12T08:09:27;17.85;;;8.23;;
16137;SDS011;8174;43.550;5.206;2022-10-12T08:11:55;15.18;;;8.20;;
16137;SDS011;8174;43.550;5.206;2022-10-12T08:14:22;15.00;;;7.57;;
16137;SDS011;8174;43.550;5.206;2022-10-12T08:16:50;11.05;;;7.38;;
16137;SDS011;8174;43.550;5.206;2022-10-12T08:19:18;18.95;;;7.50;;
16137;SDS011;8174;43.550;5.206;2022-10-12T08:21:47;17.73;;;7.32;;
16137;SDS011;8174;43.550;5.206;2022-10-12T08:24:15;14.27;;;7.15;;
16137;SDS011;8174;43.550;5.206;2022-10-12T08:26:42;13.48;;;6.38;;
16137;SDS011;8174;43.550;5.206;2022-10-12T08:29:10;10.93;;;6.65;;
16137;SDS011;8174;43.550;5.206;2022-10-12T08:31:38;13.27;;;6.50;;
16137;SDS011;8174;43.550;5.206;2022-10-12T08:34:05;11.35;;;6.28;;
16137;SDS011;8174;43.550;5.206;2022-10-12T08:36:33;12.50;;;6.25;;
16137;SDS011;8174;43.550;5.206;2022-10-12T08:39:02;9.98;;;6.47;;
16137;SDS011;8174;43.550;5.206;2022-10-12T08:41:37;10.25;;;6.20;;
16137;SDS011;8174;43.550;5.206;2022-10-12T08:44:14;12.20;;;6.07;;
16137;SDS011;8174;43.550;5.206;2022-10-12T08:46:45;11.35;;;5.93;;
16137;SDS011;8174;43.550;5.206;2022-10-12T08:49:13;14.30;;;6.15;;
16137;SDS011;8174;43.550;5.206;2022-10-12T08:51:44;16.13;;;6.10;;
16137;SDS011;8174;43.550;5.206;2022-10-12T08:54:14;9.40;;;5.63;;
16137;SDS011;8174;43.550;5.206;2022-10-12T08:56:43;16.05;;;6.22;;
16137;SDS011;8174;43.550;5.206;2022-10-12T08:59:11;14.23;;;5.63;;
16137;SDS011;8174;43.550;5.206;2022-10-12T09:01:43;12.30;;;5.75;;
16137;SDS011;8174;43.550;5.206;2022-10-12T09:04:20;9.48;;;5.80;;
16137;SDS011;8174;43.550;5.206;2022-10-12T09:06:55;12.95;;;5.60;;
16137;SDS011;8174;43.550;5.206;2022-10-12T09:09:34;8.38;;;5.75;;
16137;SDS011;8174;43.550;5.206;2022-10-12T09:12:10;9.80;;;5.78;;
16137;SDS011;8174;43.550;5.206;2022-10-12T09:14:45;11.27;;;6.28;;
16137;SDS011;8174;43.550;5.206;2022-10-12T09:17:20;10.32;;;6.65;;
16137;SDS011;8174;43.550;5.206;2022-10-12T09:19:48;13.10;;;6.10;;
16137;SDS011;8174;43.550;5.206;2022-10-12T09:22:19;12.18;;;5.75;;
16137;SDS011;8174;43.550;5.206;2022-10-12T09:24:48;15.57;;;6.65;;
16137;SDS011;8174;43.550;5.206;2022-10-12T09:27:18;10.68;;;5.93;;
16137;SDS011;8174;43.550;5.206;2022-10-12T09:29:47;8.73;;;5.53;;
16137;SDS011;8174;43.550;5.206;2022-10-12T09:32:22;9.88;;;5.75;;
16137;SDS011;8174;43.550;5.206;2022-10-12T09:34:55;10.73;;;5.65;;
16137;SDS011;8174;43.550;5.206;2022-10-12T09:37:24;9.50;;;6.15;;
16137;SDS011;8174;43.550;5.206;2022-10-12T09:39:54;16.88;;;6.28;;
16137;SDS011;8174;43.550;5.206;2022-10-12T09:42:22;11.55;;;6.85;;
16137;SDS011;8174;43.550;5.206;2022-10-12T09:44:51;13.27;;;6.40;;
16137;SDS011;8174;43.550;5.206;2022-10-12T09:47:25;9.43;;;6.10;;
16137;SDS011;8174;43.550;5.206;2022-10-12T09:49:53;9.90;;;5.85;;
16137;SDS011;8174;43.550;5.206;2022-10-12T09:52:23;8.95;;;5.80;;
16137;SDS011;8174;43.550;5.206;2022-10-12T09:54:56;12.52;;;6.68;;
16137;SDS011;8174;43.550;5.206;2022-10-12T09:57:24;12.43;;;6.80;;
16137;SDS011;8174;43.550;5.206;2022-10-12T09:59:52;9.07;;;6.05;;
16137;SDS011;8174;43.550;5.206;2022-10-12T10:02:21;9.77;;;5.60;;
16137;SDS011;8174;43.550;5.206;2022-10-12T10:04:49;7.63;;;5.85;;
16137;SDS011;8174;43.550;5.206;2022-10-12T10:07:24;7.75;;;5.60;;
16137;SDS011;8174;43.550;5.206;2022-10-12T10:10:12;9.20;;;5.47;;
16137;SDS011;8174;43.550;5.206;2022-10-12T10:12:41;8.38;;;5.40;;
16137;SDS011;8174;43.550;5.206;2022-10-12T10:15:14;10.18;;;5.80;;
16137;SDS011;8174;43.550;5.206;2022-10-12T10:17:45;9.98;;;6.18;;
16137;SDS011;8174;43.550;5.206;2022-10-12T10:20:21;9.38;;;6.15;;
16137;SDS011;8174;43.550;5.206;2022-10-12T10:22:49;8.90;;;5.82;;
16137;SDS011;8174;43.550;5.206;2022-10-12T10:25:19;6.50;;;5.60;;
16137;SDS011;8174;43.550;5.206;2022-10-12T10:28:07;6.50;;;5.75;;
16137;SDS011;8174;43.550;5.206;2022-10-12T10:30:35;8.02;;;6.20;;
16137;SDS011;8174;43.550;5.206;2022-10-12T10:33:07;8.75;;;5.85;;
16137;SDS011;8174;43.550;5.206;2022-10-12T10:35:35;9.52;;;5.85;;
16137;SDS011;8174;43.550;5.206;2022-10-12T10:38:04;13.32;;;5.32;;
16137;SDS011;8174;43.550;5.206;2022-10-12T10:40:34;9.70;;;5.60;;
16137;SDS011;8174;43.550;5.206;2022-10-12T10:43:02;9.15;;;5.60;;
16137;SDS011;8174;43.550;5.206;2022-10-12T10:45:31;11.13;;;5.78;;
16137;SDS011;8174;43.550;5.206;2022-10-12T10:48:05;9.32;;;5.40;;
16137;SDS011;8174;43.550;5.206;2022-10-12T10:50:33;9.10;;;5.47;;
16137;SDS011;8174;43.550;5.206;2022-10-12T10:53:02;7.03;;;5.15;;
16137;SDS011;8174;43.550;5.206;2022-10-12T10:55:40;10.98;;;5.63;;
16137;SDS011;8174;43.550;5.206;2022-10-12T10:58:13;7.80;;;4.95;;
16137;SDS011;8174;43.550;5.206;2022-10-12T11:00:43;7.75;;;5.60;;
16137;SDS011;8174;43.550;5.206;2022-10-12T11:03:14;9.50;;;6.63;;
16137;SDS011;8174;43.550;5.206;2022-10-12T11:05:43;8.93;;;6.88;;
16137;SDS011;8174;43.550;5.206;2022-10-12T11:08:12;10.75;;;5.50;;
16137;SDS011;8174;43.550;5.206;2022-10-12T11:10:45;8.93;;;5.28;;
16137;SDS011;8174;43.550;5.206;2022-10-12T11:13:15;11.32;;;5.25;;
16137;SDS011;8174;43.550;5.206;2022-10-12T11:15:44;8.40;;;5.55;;
16137;SDS011;8174;43.550;5.206;2022-10-12T11:18:14;7.22;;;4.75;;
16137;SDS011;8174;43.550;5.206;2022-10-12T11:20:45;7.10;;;4.82;;
16137;SDS011;8174;43.550;5.206;2022-10-12T11:23:17;6.85;;;5.10;;
16137;SDS011;8174;43.550;5.206;2022-10-12T11:25:49;8.65;;;4.78;;
16137;SDS011;8174;43.550;5.206;2022-10-12T11:28:20;10.38;;;4.63;;
16137;SDS011;8174;43.550;5.206;2022-10-12T11:30:53;6.15;;;4.60;;
16137;SDS011;8174;43.550;5.206;2022-10-12T11:33:21;6.25;;;4.53;;
16137;SDS011;8174;43.550;5.206;2022-10-12T11:35:49;6.63;;;4.40;;
16137;SDS011;8174;43.550;5.206;2022-10-12T11:38:19;6.00;;;4.32;;
16137;SDS011;8174;43.550;5.206;2022-10-12T11:40:51;6.78;;;4.60;;
16137;SDS011;8174;43.550;5.206;2022-10-12T11:43:20;8.23;;;4.43;;
16137;SDS011;8174;43.550;5.206;2022-10-12T11:45:49;8.02;;;4.40;;
16137;SDS011;8174;43.550;5.206;2022-10-12T11:48:20;5.55;;;4.43;;
16137;SDS011;8174;43.550;5.206;2022-10-12T11:50:49;6.88;;;4.38;;
16137;SDS011;8174;43.550;5.206;2022-10-12T11:53:18;6.40;;;4.53;;
16137;SDS011;8174;43.550;5.206;2022-10-12T11:55:53;5.35;;;4.25;;
16137;SDS011;8174;43.550;5.206;2022-10-12T11:58:24;6.65;;;4.40;;
16137;SDS011;8174;43.550;5.206;2022-10-12T12:00:55;6.00;;;4.10;;
16137;SDS011;8174;43.550;5.206;2022-10-12T12:03:25;8.55;;;4.57;;
16137;SDS011;8174;43.550;5.206;2022-10-12T12:05:55;8.02;;;4.10;;
16137;SDS011;8174;43.550;5.206;2022-10-12T12:08:55;6.55;;;4.53;;
16137;SDS011;8174;43.550;5.206;2022-10-12T12:11:25;4.70;;;4.20;;
16137;SDS011;8174;43.550;5.206;2022-10-12T12:16:35;5.85;;;3.97;;
16137;SDS011;8174;43.550;5.206;2022-10-12T12:24:57;12.70;;;5.45;;
16137;SDS011;8174;43.550;5.206;2022-10-12T12:27:39;7.22;;;5.20;;
16137;SDS011;8174;43.550;5.206;2022-10-12T12:30:19;9.20;;;4.97;;
16137;SDS011;8174;43.550;5.206;2022-10-12T12:32:49;9.95;;;5.50;;
16137;SDS011;8174;43.550;5.206;2022-10-12T12:35:22;7.80;;;4.85;;
16137;SDS011;8174;43.550;5.206;2022-10-12T12:37:58;9.43;;;5.70;;
16137;SDS011;8174;43.550;5.206;2022-10-12T12:40:26;6.90;;;5.15;;
16137;SDS011;8174;43.550;5.206;2022-10-12T12:45:51;7.63;;;5.05;;
16137;SDS011;8174;43.550;5.206;2022-10-12T12:51:01;7.65;;;5.30;;
16137;SDS011;8174;43.550;5.206;2022-10-12T12:53:29;12.13;;;5.88;;
16137;SDS011;8174;43.550;5.206;2022-10-12T12:56:02;18.05;;;6.75;;
16137;SDS011;8174;43.550;5.206;2022-10-12T12:58:34;24.08;;;8.00;;
16137;SDS011;8174;43.550;5.206;2022-10-12T13:01:15;24.65;;;9.93;;
16137;SDS011;8174;43.550;5.206;2022-10-12T13:04:01;20.23;;;8.35;;
16137;SDS011;8174;43.550;5.206;2022-10-12T13:09:27;15.68;;;11.05;;
16137;SDS011;8174;43.550;5.206;2022-10-12T13:12:09;14.98;;;11.52;;
16137;SDS011;8174;43.550;5.206;2022-10-12T13:14:43;15.65;;;11.45;;
16137;SDS011;8174;43.550;5.206;2022-10-12T13:17:20;11.73;;;10.50;;
16137;SDS011;8174;43.550;5.206;2022-10-12T13:19:52;12.50;;;9.82;;
16137;SDS011;8174;43.550;5.206;2022-10-12T13:22:22;15.15;;;9.55;;
16137;SDS011;8174;43.550;5.206;2022-10-12T13:24:53;17.02;;;9.95;;
16137;SDS011;8174;43.550;5.206;2022-10-12T13:27:22;13.00;;;8.65;;
16137;SDS011;8174;43.550;5.206;2022-10-12T13:29:52;11.82;;;7.57;;
16137;SDS011;8174;43.550;5.206;2022-10-12T13:32:24;14.15;;;7.47;;
16137;SDS011;8174;43.550;5.206;2022-10-12T13:34:55;10.30;;;7.15;;
16137;SDS011;8174;43.550;5.206;2022-10-12T13:37:28;10.70;;;7.28;;
16137;SDS011;8174;43.550;5.206;2022-10-12T13:39:56;8.93;;;6.90;;
16137;SDS011;8174;43.550;5.206;2022-10-12T13:42:24;7.45;;;6.55;;
16137;SDS011;8174;43.550;5.206;2022-10-12T13:44:52;8.35;;;6.57;;
16137;SDS011;8174;43.550;5.206;2022-10-12T13:47:20;7.90;;;6.40;;
16137;SDS011;8174;43.550;5.206;2022-10-12T13:49:50;10.82;;;6.72;;
16137;SDS011;8174;43.550;5.206;2022-10-12T13:52:18;10.93;;;6.63;;
16137;SDS011;8174;43.550;5.206;2022-10-12T13:54:48;8.60;;;7.13;;
16137;SDS011;8174;43.550;5.206;2022-10-12T13:57:17;14.07;;;7.60;;
16137;SDS011;8174;43.550;5.206;2022-10-12T13:59:45;9.85;;;7.82;;
16137;SDS011;8174;43.550;5.206;2022-10-12T14:02:15;11.00;;;7.20;;
16137;SDS011;8174;43.550;5.206;2022-10-12T14:04:43;12.77;;;7.07;;
16137;SDS011;8174;43.550;5.206;2022-10-12T14:07:13;13.10;;;7.20;;
16137;SDS011;8174;43.550;5.206;2022-10-12T14:09:44;11.13;;;6.28;;
16137;SDS011;8174;43.550;5.206;2022-10-12T14:12:12;10.82;;;7.65;;
16137;SDS011;8174;43.550;5.206;2022-10-12T14:14:41;9.45;;;7.40;;
16137;SDS011;8174;43.550;5.206;2022-10-12T14:17:12;9.73;;;6.57;;
16137;SDS011;8174;43.550;5.206;2022-10-12T14:19:41;9.95;;;7.50;;
16137;SDS011;8174;43.550;5.206;2022-10-12T14:22:14;11.32;;;6.57;;
16137;SDS011;8174;43.550;5.206;2022-10-12T14:24:45;9.00;;;6.72;;
16137;SDS011;8174;43.550;5.206;2022-10-12T14:27:19;11.48;;;5.88;;
16137;SDS011;8174;43.550;5.206;2022-10-12T14:29:48;8.65;;;6.43;;
16137;SDS011;8174;43.550;5.206;2022-10-12T14:32:36;10.75;;;6.65;;
16137;SDS011;8174;43.550;5.206;2022-10-12T14:35:12;9.35;;;6.40;;
16137;SDS011;8174;43.550;5.206;2022-10-12T14:37:47;9.80;;;6.00;;
16137;SDS011;8174;43.550;5.206;2022-10-12T14:40:25;8.25;;;5.63;;
16137;SDS011;8174;43.550;5.206;2022-10-12T14:42:56;10.13;;;6.47;;
16137;SDS011;8174;43.550;5.206;2022-10-12T14:45:24;10.15;;;5.82;;
16137;SDS011;8174;43.550;5.206;2022-10-12T14:47:52;9.90;;;5.88;;
16137;SDS011;8174;43.550;5.206;2022-10-12T14:50:20;16.15;;;6.65;;
16137;SDS011;8174;43.550;5.206;2022-10-12T14:52:50;12.90;;;6.55;;
16137;SDS011;8174;43.550;5.206;2022-10-12T14:55:19;20.17;;;7.03;;
16137;SDS011;8174;43.550;5.206;2022-10-12T14:57:46;12.30;;;6.35;;
16137;SDS011;8174;43.550;5.206;2022-10-12T15:00:14;16.45;;;6.75;;
16137;SDS011;8174;43.550;5.206;2022-10-12T15:02:42;13.85;;;6.45;;
16137;SDS011;8174;43.550;5.206;2022-10-12T15:05:11;16.38;;;6.50;;
16137;SDS011;8174;43.550;5.206;2022-10-12T15:07:38;13.75;;;6.97;;
16137;SDS011;8174;43.550;5.206;2022-10-12T15:10:08;17.85;;;7.35;;
16137;SDS011;8174;43.550;5.206;2022-10-12T15:12:36;11.88;;;6.93;;
16137;SDS011;8174;43.550;5.206;2022-10-12T15:15:09;13.23;;;7.45;;
16137;SDS011;8174;43.550;5.206;2022-10-12T15:17:40;12.55;;;7.80;;
16137;SDS011;8174;43.550;5.206;2022-10-12T15:20:08;16.15;;;7.43;;